Time;durP1;ratioP1;P1;durP2;ratioP2;P2;SDS_P1;SDS_P2;PMS_P1;PMS_P2;Temp;Humidity;BMP_temperature;BMP_pressure;BME280_temperature;BME280_humidity;BME280_pressure;Samples;Min_cycle;Max_cycle;Signal;HPM_P1;HPM_P2
2021/04/11 00:01:36;;;;;;;7.07;3.50;;;;;;;10.66;54.41;95630.63;5069381;28;20024;-75
2021/04/11 00:04:02;;;;;;;7.97;3.07;;;;;;;10.60;54.91;95637.41;5063603;28;20456;-74
2021/04/11 00:06:28;;;;;;;6.80;3.13;;;;;;;10.64;54.63;95622.09;5070031;28;20130;-74
2021/04/11 00:08:54;;;;;;;10.87;5.90;;;;;;;10.65;54.22;95623.72;5049720;28;20013;-75
2021/04/11 00:11:21;;;;;;;14.97;7.17;;;;;;;10.68;54.44;95619.94;5069111;28;20047;-76
2021/04/11 00:13:50;;;;;;;10.60;5.27;;;;;;;10.67;54.04;95615.69;5079539;28;20032;-74
2021/04/11 00:16:15;;;;;;;7.53;3.50;;;;;;;10.67;53.81;95615.69;5053924;28;20029;-76
2021/04/11 00:18:41;;;;;;;8.50;3.90;;;;;;;10.75;53.37;95615.59;5067458;28;20090;-75
2021/04/11 00:21:07;;;;;;;8.03;3.33;;;;;;;10.65;53.74;95615.84;5061099;28;20031;-75
2021/04/11 00:23:33;;;;;;;7.50;3.97;;;;;;;10.64;53.71;95610.75;5055342;28;20162;-75
2021/04/11 00:25:59;;;;;;;6.87;3.47;;;;;;;10.66;53.77;95611.38;5063028;28;20115;-75
2021/04/11 00:28:25;;;;;;;7.77;3.37;;;;;;;10.69;53.74;95608.41;5062176;28;20700;-75
2021/04/11 00:30:51;;;;;;;9.07;3.67;;;;;;;10.65;53.55;95609.75;5071204;28;20141;-75
2021/04/11 00:33:29;;;;;;;6.67;3.00;;;;;;;10.69;53.29;95600.53;5065846;28;20123;-76
2021/04/11 00:35:59;;;;;;;7.73;3.00;;;;;;;10.72;53.10;95608.88;5074479;28;20028;-75
2021/04/11 00:38:26;;;;;;;8.40;3.03;;;;;;;10.65;53.40;95604.50;5073001;28;20032;-75
2021/04/11 00:40:56;;;;;;;9.57;4.43;;;;;;;10.59;53.88;95598.94;5071758;28;20093;-75
2021/04/11 00:43:23;;;;;;;7.60;3.53;;;;;;;10.60;53.92;95605.03;5072682;28;20032;-75
2021/04/11 00:46:11;;;;;;;10.07;3.47;;;;;;;10.52;54.44;95603.25;5051294;28;20031;-75
2021/04/11 00:48:37;;;;;;;5.80;2.77;;;;;;;10.50;54.63;95604.44;5059721;28;20033;-75
2021/04/11 00:51:15;;;;;;;8.20;3.13;;;;;;;10.53;54.54;95597.03;5083501;28;20027;-75
2021/04/11 00:53:43;;;;;;;6.77;2.93;;;;;;;10.52;54.12;95600.63;5078363;28;20089;-75
2021/04/11 00:56:11;;;;;;;8.20;3.30;;;;;;;10.58;53.86;95596.50;5056120;28;20020;-74
2021/04/11 00:58:38;;;;;;;5.50;2.90;;;;;;;10.59;53.68;95592.88;5066504;28;20033;-75
2021/04/11 01:01:05;;;;;;;7.60;2.77;;;;;;;10.65;53.27;95589.53;5045072;28;20438;-75
2021/04/11 01:03:34;;;;;;;5.17;2.37;;;;;;;10.66;52.98;95590.34;5066541;28;20417;-75
2021/04/11 01:06:01;;;;;;;6.13;2.87;;;;;;;10.68;53.04;95586.56;5047648;28;20029;-74
2021/04/11 01:08:30;;;;;;;6.50;2.87;;;;;;;10.62;53.18;95585.44;5046921;28;20549;-75
2021/04/11 01:11:11;;;;;;;5.50;2.70;;;;;;;10.62;53.35;95589.88;5064718;28;20076;-76
2021/04/11 01:13:44;;;;;;;6.17;2.63;;;;;;;10.61;53.51;95588.25;5043607;28;20089;-76
2021/04/11 01:16:11;;;;;;;9.53;3.10;;;;;;;10.63;53.63;95581.03;5062168;28;20057;-75
2021/04/11 01:18:39;;;;;;;6.63;3.13;;;;;;;10.59;53.82;95577.91;5077898;28;20021;-74
2021/04/11 01:21:17;;;;;;;6.27;3.03;;;;;;;10.68;53.48;95576.03;5083546;28;20020;-74
2021/04/11 01:23:52;;;;;;;5.93;2.77;;;;;;;10.59;53.50;95572.66;5075475;28;20032;-74
2021/04/11 01:26:19;;;;;;;7.17;3.17;;;;;;;10.59;53.96;95572.66;5072678;28;20043;-75
2021/04/11 01:28:47;;;;;;;5.70;2.73;;;;;;;10.58;53.91;95570.19;5055512;28;20055;-75
2021/04/11 01:31:14;;;;;;;8.93;3.07;;;;;;;10.55;54.17;95566.09;5082271;28;20039;-75
2021/04/11 01:33:51;;;;;;;5.23;2.50;;;;;;;10.48;54.64;95567.00;5059811;28;20032;-74
2021/04/11 01:36:23;;;;;;;8.23;3.40;;;;;;;10.51;54.35;95569.28;5066353;28;20103;-75
2021/04/11 01:38:50;;;;;;;6.90;2.83;;;;;;;10.44;54.53;95558.63;5057331;28;20028;-75
2021/04/11 01:41:19;;;;;;;6.97;2.87;;;;;;;10.43;54.37;95564.91;5071661;28;20113;-75
2021/04/11 01:43:46;;;;;;;6.77;2.37;;;;;;;10.43;54.30;95557.00;5055054;28;20429;-74
2021/04/11 01:46:12;;;;;;;7.87;2.50;;;;;;;10.48;53.73;95567.81;5055415;28;20106;-75
2021/04/11 01:48:40;;;;;;;5.57;2.40;;;;;;;10.44;54.14;95565.72;5074835;28;20028;-75
2021/04/11 01:51:09;;;;;;;4.40;1.77;;;;;;;10.36;55.16;95564.78;5082718;28;20080;-74
2021/04/11 01:53:37;;;;;;;4.20;2.20;;;;;;;10.32;54.85;95571.34;5084132;28;20024;-74
2021/04/11 01:56:05;;;;;;;3.93;2.20;;;;;;;10.29;54.80;95555.09;5056842;28;20052;-75
2021/04/11 01:58:34;;;;;;;6.00;2.23;;;;;;;10.22;55.61;95559.41;5070064;28;20436;-75
2021/04/11 02:01:12;;;;;;;6.83;2.70;;;;;;;10.18;55.49;95566.00;5071393;28;20065;-75
2021/04/11 02:03:39;;;;;;;4.07;2.23;;;;;;;10.11;56.57;95568.50;5068847;28;20029;-74
2021/04/11 02:06:07;;;;;;;4.97;2.33;;;;;;;10.03;56.38;95569.38;5076158;28;20501;-76
2021/04/11 02:08:38;;;;;;;5.33;2.23;;;;;;;9.91;57.01;95561.03;5058118;28;20033;-74
2021/04/11 02:11:04;;;;;;;4.80;2.20;;;;;;;9.87;56.79;95565.00;5070114;28;20024;-75
2021/04/11 02:13:36;;;;;;;4.97;2.60;;;;;;;9.82;57.25;95563.88;5060849;28;20028;-75
2021/04/11 02:16:16;;;;;;;3.70;2.10;;;;;;;9.75;57.21;95563.72;5050122;28;20036;-75
2021/04/11 02:18:42;;;;;;;6.10;2.50;;;;;;;9.66;57.70;95560.34;5075481;28;20032;-76
2021/04/11 02:21:16;;;;;;;5.03;2.27;;;;;;;9.58;57.54;95565.59;5082318;28;20031;-75
2021/04/11 02:23:42;;;;;;;6.18;2.70;;;;;;;9.57;58.21;95563.16;5076958;28;20032;-73
2021/04/11 02:26:11;;;;;;;4.43;2.10;;;;;;;9.52;58.38;95557.59;5074982;28;20078;-75
2021/04/11 02:28:38;;;;;;;4.10;2.07;;;;;;;9.48;58.27;95562.34;5078488;28;20032;-76
2021/04/11 02:31:17;;;;;;;7.40;2.80;;;;;;;9.45;58.09;95563.50;5061723;28;20035;-75
2021/04/11 02:33:47;;;;;;;;;;;;;;;9.43;58.34;95551.56;5054440;28;20096;-76
2021/04/11 02:36:14;;;;;;;4.23;2.43;;;;;;;9.46;58.82;95553.84;5047961;28;19917;-74
2021/04/11 02:38:40;;;;;;;5.30;2.43;;;;;;;9.44;59.29;95551.38;5086910;28;20492;-76
2021/04/11 02:41:06;;;;;;;5.13;2.77;;;;;;;9.41;59.10;95556.13;5075292;28;20028;-74
2021/04/11 02:43:38;;;;;;;7.77;2.87;;;;;;;9.31;60.14;95558.13;5071120;28;20024;-74
2021/04/11 02:46:04;;;;;;;6.47;2.70;;;;;;;9.32;59.71;95551.91;5066565;28;20440;-74
2021/04/11 02:48:30;;;;;;;6.70;2.90;;;;;;;9.37;59.85;95549.59;5087518;28;20140;-75
2021/04/11 02:51:17;;;;;;;5.67;2.47;;;;;;;9.35;59.64;95547.13;5075239;28;20173;-74
2021/04/11 02:53:49;;;;;;;7.03;2.93;;;;;;;9.33;59.59;95540.44;5058051;28;20024;-75
2021/04/11 02:56:24;;;;;;;6.33;2.40;;;;;;;9.27;59.75;95538.47;5051358;28;20774;-76
2021/04/11 02:58:52;;;;;;;6.97;2.83;;;;;;;9.26;59.83;95536.84;5067573;28;20100;-75
2021/04/11 03:01:27;;;;;;;6.13;2.60;;;;;;;9.31;59.91;95539.78;5084248;28;20059;-74
2021/04/11 03:03:55;;;;;;;4.63;2.17;;;;;;;9.31;59.34;95535.34;5062229;28;20058;-75
2021/04/11 03:06:25;;;;;;;7.20;2.20;;;;;;;9.34;59.25;95536.81;5062731;28;20090;-75
2021/04/11 03:08:57;;;;;;;5.35;2.65;;;;;;;9.37;58.79;95539.09;5074882;28;20012;-75
2021/04/11 03:11:47;;;;;;;5.63;2.77;;;;;;;9.35;59.40;95531.38;5072598;28;20033;-74
2021/04/11 03:14:21;;;;;;;7.53;2.30;;;;;;;9.34;60.04;95531.56;5064967;28;20028;-75
2021/04/11 03:16:50;;;;;;;4.75;1.92;;;;;;;9.37;59.86;95528.59;5053386;28;20402;-76
2021/04/11 03:19:22;;;;;;;5.33;1.97;;;;;;;9.34;59.76;95531.56;5076839;28;20035;-76
2021/04/11 03:21:50;;;;;;;4.90;2.42;;;;;;;9.32;59.82;95521.25;5067074;28;20032;-74
2021/04/11 03:24:17;;;;;;;5.63;2.40;;;;;;;9.33;59.60;95527.31;5080717;28;20499;-74
2021/04/11 03:27:04;;;;;;;4.70;2.33;;;;;;;9.32;59.84;95530.91;5077564;28;20029;-75
2021/04/11 03:29:54;;;;;;;5.67;2.43;;;;;;;9.25;60.67;95535.19;5062307;28;20060;-75
2021/04/11 03:32:30;;;;;;;5.07;2.30;;;;;;;9.21;60.82;95529.47;5072090;28;20043;-75
2021/04/11 03:35:01;;;;;;;4.57;2.10;;;;;;;9.15;60.72;95530.97;5075067;28;20749;-74
2021/04/11 03:37:30;;;;;;;4.60;2.33;;;;;;;9.21;60.88;95526.84;5055143;28;20374;-75
2021/04/11 03:39:58;;;;;;;6.43;2.10;;;;;;;9.21;60.43;95530.28;5078849;28;20052;-75
2021/04/11 03:42:28;;;;;;;7.17;3.57;;;;;;;9.25;59.45;95535.19;5078199;28;20035;-75
2021/04/11 03:44:58;;;;;;;6.60;2.67;;;;;;;9.27;59.59;95530.59;5064124;28;20024;-75
2021/04/11 03:47:45;;;;;;;7.23;2.67;;;;;;;9.32;59.88;95534.38;5050166;28;20120;-75
2021/04/11 03:50:27;;;;;;;5.17;2.40;;;;;;;9.32;59.62;95530.91;5076078;28;20558;-75
2021/04/11 03:53:10;;;;;;;7.17;2.90;;;;;;;9.30;59.78;95519.78;5071052;28;20039;-75
2021/04/11 03:55:42;;;;;;;7.80;2.97;;;;;;;9.27;60.35;95528.78;5058984;28;20028;-75
2021/04/11 03:58:26;;;;;;;5.53;2.80;;;;;;;9.27;60.63;95535.84;5071536;28;20048;-75
2021/04/11 04:00:58;;;;;;;5.50;2.27;;;;;;;9.30;59.86;95532.91;5056982;28;20020;-75
2021/04/11 04:03:30;;;;;;;3.87;2.00;;;;;;;9.30;59.60;95540.78;5072107;28;20033;-74
2021/04/11 04:06:14;;;;;;;5.67;2.50;;;;;;;9.31;60.35;95535.34;5077641;28;20338;-76
2021/04/11 04:08:41;;;;;;;7.00;2.50;;;;;;;9.30;60.08;95535.53;5065916;28;20039;-76
2021/04/11 04:11:22;;;;;;;4.60;2.20;;;;;;;9.32;59.76;95539.63;5054435;28;20020;-75
2021/04/11 04:13:57;;;;;;;6.50;2.47;;;;;;;9.25;60.12;95533.38;5059650;28;20032;-76
2021/04/11 04:16:49;;;;;;;8.20;2.70;;;;;;;9.25;60.45;95535.19;5068541;28;20118;-75
2021/04/11 04:19:45;;;;;;;4.20;2.03;;;;;;;9.26;60.03;95537.66;5055223;28;20036;-75
2021/04/11 04:22:18;;;;;;;4.67;2.23;;;;;;;9.28;59.98;95540.91;5069635;28;20088;-75
2021/04/11 04:25:41;;;;;;;4.83;2.13;;;;;;;9.19;60.08;95541.94;5059290;28;20071;-74
2021/04/11 04:28:10;;;;;;;;;;;;;;;9.14;61.36;95545.06;5071866;28;20036;-75
2021/04/11 04:30:46;;;;;;;5.37;2.30;;;;;;;9.12;61.12;95547.03;5059645;28;20441;-75
2021/04/11 04:33:51;;;;;;;6.50;2.57;;;;;;;9.16;61.33;95547.53;5072243;28;20696;-75
2021/04/11 04:36:36;;;;;;;5.63;2.90;;;;;;;9.11;61.52;95548.00;5028108;28;20124;-76
2021/04/11 04:39:34;;;;;;;4.83;2.23;;;;;;;9.03;61.60;95542.78;5060973;28;20523;-75
2021/04/11 04:42:27;;;;;;;4.90;2.53;;;;;;;9.06;61.79;95545.09;5054263;28;20521;-74
2021/04/11 04:45:11;;;;;;;3.23;2.03;;;;;;;9.02;62.54;95541.16;5075370;28;20496;-75
2021/04/11 04:48:04;;;;;;;7.50;3.00;;;;;;;9.05;62.25;95540.00;5060734;28;20024;-75
2021/04/11 04:51:04;;;;;;;6.50;2.50;;;;;;;9.10;62.28;95543.75;5058900;28;20044;-75
2021/04/11 04:53:37;;;;;;;7.20;2.23;;;;;;;9.10;61.93;95538.50;5082288;28;20432;-76
2021/04/11 04:56:17;;;;;;;6.83;2.40;;;;;;;9.08;63.20;95545.72;5077592;28;20498;-75
2021/04/11 04:58:49;;;;;;;5.67;2.57;;;;;;;9.05;62.65;95540.81;5057981;28;20059;-75
2021/04/11 05:01:19;;;;;;;6.83;2.60;;;;;;;9.09;62.02;95544.75;5065977;28;20064;-75
2021/04/11 05:03:58;;;;;;;8.13;2.90;;;;;;;9.10;62.68;95543.75;5074275;28;20029;-75
2021/04/11 05:06:37;;;;;;;9.73;3.67;;;;;;;9.02;61.83;95550.81;5081493;28;20111;-75
2021/04/11 05:09:21;;;;;;;8.23;2.70;;;;;;;9.05;62.33;95547.84;5053577;28;20035;-77
2021/04/11 05:12:08;;;;;;;8.13;2.90;;;;;;;9.03;62.09;95542.78;5052229;28;20062;-75
2021/04/11 05:14:49;;;;;;;8.17;3.10;;;;;;;9.09;62.38;95547.38;5075508;28;20165;-75
2021/04/11 05:17:24;;;;;;;8.23;3.33;;;;;;;9.10;62.36;95554.25;5073339;28;20662;-75
2021/04/11 05:19:58;;;;;;;8.03;3.40;;;;;;;9.21;61.88;95548.63;5055151;28;20327;-75
2021/04/11 05:22:51;;;;;;;6.67;3.27;;;;;;;9.16;62.51;95553.59;5074982;28;20035;-75
2021/04/11 05:25:35;;;;;;;7.13;3.17;;;;;;;9.18;62.70;95554.22;5059634;28;20036;-74
2021/04/11 05:28:10;;;;;;;5.23;2.30;;;;;;;9.21;62.38;95546.03;5073431;28;20077;-76
2021/04/11 05:30:46;;;;;;;5.53;2.83;;;;;;;9.34;61.80;95545.50;5077592;28;20044;-75
2021/04/11 05:33:17;;;;;;;3.87;2.43;;;;;;;9.38;61.76;95548.59;5059371;28;20523;-75
2021/04/11 05:35:44;;;;;;;7.57;2.60;;;;;;;9.41;61.59;95545.66;5080313;28;20028;-75
2021/04/11 05:38:31;;;;;;;4.97;3.00;;;;;;;9.53;61.21;95546.94;5074515;28;20048;-75
2021/04/11 05:41:06;;;;;;;7.70;2.93;;;;;;;9.59;60.46;95548.88;5059200;28;20024;-75
2021/04/11 05:44:01;;;;;;;8.27;3.93;;;;;;;9.59;60.50;95548.03;5077815;28;20043;-75
2021/04/11 05:46:39;;;;;;;11.03;4.63;;;;;;;9.69;60.28;95548.66;5070319;28;20067;-75
2021/04/11 05:49:15;;;;;;;5.80;3.40;;;;;;;9.76;60.12;95551.41;5062943;28;20052;-74
2021/04/11 05:52:04;;;;;;;6.47;3.67;;;;;;;9.82;59.98;95540.22;5103874;28;20082;-74
2021/04/11 05:54:35;;;;;;;5.90;2.93;;;;;;;9.87;59.64;95551.06;5079592;28;20682;-75
2021/04/11 05:57:08;;;;;;;6.13;3.20;;;;;;;9.96;59.56;95542.16;5075820;28;20043;-75
2021/04/11 05:59:40;;;;;;;5.30;2.63;;;;;;;9.87;61.17;95545.81;5066040;28;20082;-75
2021/04/11 06:02:22;;;;;;;6.27;2.13;;;;;;;9.68;61.91;95547.84;5077379;28;20036;-75
2021/04/11 06:05:00;;;;;;;6.77;3.67;;;;;;;9.76;62.18;95543.53;5074185;28;20040;-75
2021/04/11 06:07:35;;;;;;;7.77;3.60;;;;;;;9.93;61.35;95550.38;5058951;28;20484;-75
2021/04/11 06:10:07;;;;;;;6.77;3.80;;;;;;;10.18;60.37;95543.16;5076465;28;20774;-74
2021/04/11 06:12:55;;;;;;;9.80;5.87;;;;;;;10.03;61.22;95544.91;5073580;28;20439;-74
2021/04/11 06:15:32;;;;;;;9.87;4.77;;;;;;;10.08;61.68;95540.75;5075154;28;20107;-75
2021/04/11 06:17:59;;;;;;;6.90;3.90;;;;;;;9.75;63.07;95536.66;5078172;28;20028;-75
2021/04/11 06:20:27;;;;;;;7.53;4.40;;;;;;;9.89;63.28;95542.03;5080308;28;20050;-75
2021/04/11 06:23:09;;;;;;;14.07;4.87;;;;;;;10.17;62.27;95532.84;5075715;28;20146;-75
2021/04/11 06:26:00;;;;;;;10.33;4.60;;;;;;;10.31;62.26;95535.56;5088953;28;20128;-75
2021/04/11 06:28:29;;;;;;;7.53;4.27;;;;;;;10.92;59.69;95532.13;5036019;28;20123;-75
2021/04/11 06:31:11;;;;;;;6.97;4.30;;;;;;;11.56;57.94;95535.88;5079392;28;20024;-75
2021/04/11 06:33:41;;;;;;;8.00;3.37;;;;;;;12.05;55.55;95525.78;5074311;28;20025;-74
2021/04/11 06:36:20;;;;;;;5.77;2.97;;;;;;;12.25;54.05;95527.63;5086452;28;20503;-75
2021/04/11 06:39:00;;;;;;;6.83;2.87;;;;;;;13.23;51.35;95525.22;5064123;28;20138;-76
2021/04/11 06:41:40;;;;;;;4.23;2.20;;;;;;;13.60;50.20;95525.88;5082347;28;20040;-77
2021/04/11 06:44:18;;;;;;;4.43;2.40;;;;;;;13.19;50.24;95529.25;5063576;28;20464;-74
2021/04/11 06:47:28;;;;;;;4.57;2.17;;;;;;;13.14;50.79;95523.72;5079153;28;20115;-75
2021/04/11 06:50:19;;;;;;;4.07;2.00;;;;;;;12.70;52.47;95525.63;5075149;28;20042;-74
2021/04/11 06:53:22;;;;;;;5.47;1.97;;;;;;;13.32;51.36;95515.38;5078111;28;20025;-76
2021/04/11 06:56:15;;;;;;;6.40;2.20;;;;;;;14.28;49.08;95512.72;5066516;28;20124;-74
2021/04/11 06:59:04;;;;;;;6.33;2.37;;;;;;;15.08;46.83;95503.06;5083383;28;20067;-75
2021/04/11 07:01:42;;;;;;;4.13;1.70;;;;;;;14.79;46.17;95510.41;5091077;28;20438;-75
2021/04/11 07:05:00;;;;;;;5.23;2.00;;;;;;;15.65;43.93;95498.06;5066830;28;20028;-76
2021/04/11 07:07:38;;;;;;;4.00;2.10;;;;;;;15.88;44.97;95502.91;5032705;28;20391;-76
2021/04/11 07:10:06;;;;;;;5.33;2.10;;;;;;;15.82;44.70;95506.38;5080571;28;20046;-76
2021/04/11 07:12:54;;;;;;;4.50;2.10;;;;;;;16.50;43.73;95496.06;5081559;28;20032;-76
2021/04/11 07:15:29;;;;;;;5.10;1.97;;;;;;;16.24;42.96;95495.19;5074266;28;20063;-76
2021/04/11 07:18:33;;;;;;;3.03;1.50;;;;;;;16.71;42.35;95493.03;5066417;28;20028;-76
2021/04/11 07:21:40;;;;;;;6.17;2.00;;;;;;;15.87;43.83;95491.50;5039219;28;20048;-75
2021/04/11 07:24:15;;;;;;;4.27;1.50;;;;;;;16.22;43.76;95491.91;5072761;28;20065;-76
2021/04/11 07:26:43;;;;;;;4.80;1.90;;;;;;;16.37;43.90;95493.50;5072043;28;20032;-77
2021/04/11 07:29:24;;;;;;;4.63;1.87;;;;;;;16.97;42.29;95496.56;5083276;28;20074;-75
2021/04/11 07:32:06;;;;;;;7.17;2.03;;;;;;;17.20;41.97;95491.47;5069944;28;20414;-77
2021/04/11 07:34:46;;;;;;;3.30;1.50;;;;;;;17.55;38.87;95492.75;5068596;28;20370;-76
2021/04/11 07:37:43;;;;;;;8.20;1.20;;;;;;;17.30;39.07;95487.47;5080638;28;20034;-75
2021/04/11 07:40:26;;;;;;;2.50;1.27;;;;;;;17.15;39.47;95493.13;5075946;28;20032;-76
2021/04/11 07:42:52;;;;;;;;;;;;;;;18.02;38.30;95493.88;5062709;28;20030;-76
2021/04/11 07:45:39;;;;;;;3.60;1.17;;;;;;;18.46;37.90;95494.50;5085534;28;19908;-77
2021/04/11 07:48:11;;;;;;;3.65;1.00;;;;;;;18.59;37.20;95491.66;5078202;28;20025;-76
2021/04/11 07:51:01;;;;;;;6.28;1.58;;;;;;;18.46;37.48;95494.50;5060561;28;20441;-76
2021/04/11 07:53:49;;;;;;;3.33;1.08;;;;;;;17.77;39.06;95498.44;5086124;28;20377;-77
2021/04/11 07:56:20;;;;;;;3.88;1.25;;;;;;;17.30;40.67;95500.75;5047753;28;20039;-75
2021/04/11 07:59:23;;;;;;;2.30;1.10;;;;;;;16.71;40.74;95503.66;5061153;28;20029;-76
2021/04/11 08:01:48;;;;;;;3.08;0.88;;;;;;;16.50;42.10;95498.72;5050865;28;20552;-75
2021/04/11 08:04:33;;;;;;;4.43;1.42;;;;;;;16.46;42.99;95505.47;5050085;28;20035;-75
2021/04/11 08:07:14;;;;;;;2.95;1.30;;;;;;;16.60;42.64;95509.69;5045253;28;20089;-78
2021/04/11 08:09:46;;;;;;;3.28;1.08;;;;;;;16.42;42.63;95515.69;5070898;28;20040;-77
2021/04/11 08:12:49;;;;;;;5.30;2.38;;;;;;;16.36;42.27;95513.88;5066361;28;20035;-75
2021/04/11 08:15:42;;;;;;;3.65;1.15;;;;;;;16.28;42.76;95519.44;5051647;28;20037;-76
2021/04/11 08:18:25;;;;;;;3.63;1.20;;;;;;;16.07;42.53;95525.06;5057501;28;20032;-76
2021/04/11 08:21:02;;;;;;;2.57;0.77;;;;;;;16.31;42.55;95521.69;5071631;28;20089;-75
2021/04/11 08:24:06;;;;;;;3.10;1.10;;;;;;;16.49;42.24;95524.41;5049535;28;20453;-76
2021/04/11 08:27:01;;;;;;;3.38;1.10;;;;;;;16.58;42.03;95532.97;5050751;28;20128;-76
2021/04/11 08:30:04;;;;;;;2.90;1.23;;;;;;;16.49;42.84;95523.59;5038038;28;20115;-76
2021/04/11 08:32:58;;;;;;;6.53;3.42;;;;;;;16.45;42.70;95533.03;5058271;28;20033;-75
2021/04/11 08:35:39;;;;;;;4.18;1.52;;;;;;;16.29;42.10;95525.56;5057883;28;20101;-77
2021/04/11 08:38:38;;;;;;;2.75;1.08;;;;;;;16.47;42.93;95528.34;5058860;28;20397;-76
2021/04/11 08:41:13;;;;;;;3.03;1.10;;;;;;;16.39;42.68;95521.41;5074289;28;20607;-75
2021/04/11 08:44:00;;;;;;;3.92;1.48;;;;;;;16.57;41.73;95523.38;5077950;28;20036;-75
2021/04/11 08:46:45;;;;;;;2.27;0.77;;;;;;;16.47;41.51;95523.84;5070310;28;20041;-76
2021/04/11 08:49:21;;;;;;;2.35;0.95;;;;;;;16.66;41.52;95526.56;5069487;28;20178;-76
2021/04/11 08:52:16;;;;;;;1.90;1.00;;;;;;;16.73;41.84;95522.88;5072956;28;20031;-77
2021/04/11 08:55:00;;;;;;;2.30;0.93;;;;;;;16.76;42.05;95531.44;5055272;28;20064;-77
2021/04/11 08:57:47;;;;;;;;;;;;;;;16.59;42.58;95529.25;5068407;28;20050;-76
2021/04/11 09:00:20;;;;;;;3.42;1.42;;;;;;;16.99;42.27;95528.22;5072336;28;19912;-75
2021/04/11 09:03:17;;;;;;;3.08;0.90;;;;;;;16.61;42.07;95534.38;5063478;28;20075;-77
2021/04/11 09:06:23;;;;;;;5.10;1.10;;;;;;;16.92;40.88;95526.41;5071600;28;20041;-76
2021/04/11 09:09:22;;;;;;;2.22;0.80;;;;;;;17.01;41.84;95532.28;5064593;28;20029;-76
2021/04/11 09:12:11;;;;;;;1.83;1.00;;;;;;;17.17;41.99;95526.44;5067636;28;20036;-77
2021/04/11 09:14:51;;;;;;;2.60;1.20;;;;;;;17.23;41.58;95531.88;5054641;28;20044;-76
2021/04/11 09:17:39;;;;;;;1.98;0.88;;;;;;;17.12;41.02;95530.75;5059846;28;20046;-76
2021/04/11 09:20:11;;;;;;;4.05;1.30;;;;;;;17.03;40.82;95522.25;5070599;28;20052;-77
2021/04/11 09:22:55;;;;;;;3.85;1.15;;;;;;;17.08;40.82;95529.56;5070162;28;20472;-77
2021/04/11 09:25:22;;;;;;;3.38;1.38;;;;;;;17.05;41.72;95528.16;5060155;28;20460;-76
2021/04/11 09:28:06;;;;;;;4.57;1.60;;;;;;;17.20;41.99;95519.84;5069303;28;20031;-76
2021/04/11 09:31:00;;;;;;;3.80;1.25;;;;;;;16.89;42.62;95529.50;5069176;28;20028;-77
2021/04/11 09:33:37;;;;;;;8.05;1.65;;;;;;;16.65;42.26;95533.72;5069704;28;20034;-77
2021/04/11 09:37:11;;;;;;;2.42;1.13;;;;;;;17.01;41.58;95532.28;5061773;28;20044;-76
2021/04/11 09:39:45;;;;;;;2.35;0.90;;;;;;;16.63;41.05;95533.16;4953910;28;20611;-75
2021/04/11 09:42:32;;;;;;;2.13;1.08;;;;;;;16.83;41.57;95533.00;5067349;28;20060;-77
2021/04/11 09:45:01;;;;;;;3.53;1.00;;;;;;;17.43;41.07;95529.88;5053116;28;20440;-76
2021/04/11 09:47:30;;;;;;;1.95;0.90;;;;;;;17.43;39.98;95529.88;5070810;28;20490;-76
2021/04/11 09:49:58;;;;;;;3.75;1.15;;;;;;;17.24;41.48;95531.69;5078830;28;20029;-76
2021/04/11 09:52:49;;;;;;;2.80;1.23;;;;;;;17.61;40.77;95521.94;5074451;28;20428;-77
2021/04/11 09:55:28;;;;;;;3.95;1.25;;;;;;;17.73;40.21;95531.81;5073668;28;20040;-76
2021/04/11 09:58:31;;;;;;;1.98;1.00;;;;;;;18.18;39.51;95526.22;5070510;28;20031;-76
2021/04/11 10:01:11;;;;;;;2.90;1.35;;;;;;;18.40;38.85;95527.34;5061341;28;20025;-76
2021/04/11 10:03:52;;;;;;;9.90;5.30;;;;;;;18.76;38.60;95526.47;5054875;28;20024;-77
2021/04/11 10:06:59;;;;;;;2.33;1.00;;;;;;;19.26;37.74;95517.28;5070479;28;20043;-76
2021/04/11 10:09:43;;;;;;;2.78;1.00;;;;;;;19.71;36.73;95512.19;5067146;28;20055;-76
2021/04/11 10:12:38;;;;;;;4.30;1.38;;;;;;;18.88;37.80;95513.19;5052663;28;20058;-76
2021/04/11 10:15:16;;;;;;;2.42;0.90;;;;;;;18.86;37.26;95504.59;5054683;28;20052;-77
2021/04/11 10:17:54;;;;;;;3.65;1.10;;;;;;;18.85;38.63;95513.66;5077783;28;20048;-77
2021/04/11 10:20:32;;;;;;;1.70;1.00;;;;;;;19.22;37.61;95502.81;5073919;28;20630;-77
2021/04/11 10:23:13;;;;;;;5.57;1.13;;;;;;;19.14;37.57;95498.59;5060124;28;20665;-76
2021/04/11 10:25:47;;;;;;;2.13;1.10;;;;;;;19.16;37.33;95498.38;5070425;28;20389;-76
2021/04/11 10:28:42;;;;;;;3.42;1.02;;;;;;;19.15;37.56;95500.25;5079555;28;20032;-77
2021/04/11 10:32:05;;;;;;;2.33;1.10;;;;;;;19.39;36.58;95497.59;5067020;28;20139;-76
2021/04/11 10:34:43;;;;;;;3.88;1.30;;;;;;;19.48;37.03;95489.00;5013993;28;20037;-76
2021/04/11 10:37:26;;;;;;;3.70;1.08;;;;;;;19.13;36.36;95490.84;4999662;28;20033;-75
2021/04/11 10:40:07;;;;;;;2.13;0.93;;;;;;;19.44;37.01;95492.34;5053015;28;20170;-76
2021/04/11 10:43:02;;;;;;;3.22;1.00;;;;;;;19.48;37.11;95478.34;5074781;28;20474;-76
2021/04/11 10:45:46;;;;;;;4.35;1.90;;;;;;;19.67;35.79;95480.88;5082078;28;20036;-75
2021/04/11 10:48:44;;;;;;;3.13;1.00;;;;;;;19.93;35.01;95477.69;5075155;28;20110;-75
2021/04/11 10:51:28;;;;;;;4.43;1.63;;;;;;;19.99;34.85;95475.97;5059238;28;20102;-75
2021/04/11 10:53:59;;;;;;;;;;;;;;;20.30;35.15;95466.66;5051225;28;20051;-76
2021/04/11 10:56:39;;;;;;;1.45;0.90;;;;;;;20.25;34.51;95463.88;5072280;28;19920;-75
2021/04/11 10:59:40;;;;;;;3.13;1.17;;;;;;;21.38;33.40;95456.72;5066498;28;20081;-76
2021/04/11 11:02:32;;;;;;;3.92;1.00;;;;;;;21.56;33.91;95454.81;5077552;28;20039;-76
2021/04/11 11:05:06;;;;;;;2.92;1.15;;;;;;;22.49;31.79;95452.16;5047962;28;20024;-76
2021/04/11 11:07:57;;;;;;;2.55;1.00;;;;;;;21.88;32.11;95457.66;5065481;28;20515;-77
2021/04/11 11:10:38;;;;;;;7.13;3.25;;;;;;;21.74;31.53;95453.72;5069295;28;20032;-76
2021/04/11 11:13:28;;;;;;;4.28;1.30;;;;;;;22.97;30.54;95450.47;5073243;28;20036;-76
2021/04/11 11:16:15;;;;;;;10.27;2.30;;;;;;;22.76;30.62;95450.28;5047006;28;20021;-76
2021/04/11 11:19:07;;;;;;;2.13;1.20;;;;;;;21.94;31.51;95459.31;5050235;28;20600;-76
2021/04/11 11:21:54;;;;;;;4.22;1.58;;;;;;;20.29;32.97;95450.88;5075426;28;20029;-76
2021/04/11 11:24:41;;;;;;;3.35;1.45;;;;;;;20.02;34.24;95446.94;5074648;28;20043;-76
2021/04/11 11:27:31;;;;;;;3.47;1.17;;;;;;;20.22;33.78;95449.19;5066468;28;20032;-76
2021/04/11 11:30:15;;;;;;;6.15;1.60;;;;;;;20.38;33.83;95449.44;5053506;28;20144;-76
2021/04/11 11:33:17;;;;;;;2.22;1.00;;;;;;;21.23;31.56;95442.28;5071375;28;20032;-76
2021/04/11 11:36:08;;;;;;;2.22;1.30;;;;;;;20.37;34.57;95445.16;5078755;28;20067;-76
2021/04/11 11:38:49;;;;;;;3.40;1.13;;;;;;;22.06;31.84;95437.75;5067098;28;20040;-75
2021/04/11 11:41:50;;;;;;;4.65;1.40;;;;;;;23.11;29.16;95430.22;5077278;28;20040;-76
2021/04/11 11:44:30;;;;;;;3.45;1.40;;;;;;;23.12;29.16;95429.16;5013648;28;20040;-75
2021/04/11 11:47:24;;;;;;;4.28;1.23;;;;;;;22.93;29.02;95428.72;5067940;28;20440;-77
2021/04/11 11:49:53;;;;;;;2.33;1.15;;;;;;;23.58;26.88;95429.44;5068842;28;20021;-76
2021/04/11 11:52:42;;;;;;;6.22;2.05;;;;;;;23.10;28.32;95417.84;5063100;28;20047;-76
2021/04/11 11:55:39;;;;;;;4.22;1.20;;;;;;;22.48;28.76;95431.81;5067336;28;20056;-75
2021/04/11 11:58:24;;;;;;;3.42;1.20;;;;;;;22.39;28.44;95430.66;5073291;28;20021;-75
2021/04/11 12:01:04;;;;;;;2.15;1.10;;;;;;;22.94;27.19;95421.50;5054104;28;20047;-75
2021/04/11 12:03:33;;;;;;;5.45;1.38;;;;;;;23.51;26.57;95423.50;5056861;28;20747;-77
2021/04/11 12:06:11;;;;;;;4.25;1.02;;;;;;;23.53;27.44;95415.97;5076965;28;20028;-76
2021/04/11 12:08:45;;;;;;;5.45;1.67;;;;;;;23.44;27.75;95420.19;5080554;28;20032;-76
2021/04/11 12:11:36;;;;;;;3.13;1.42;;;;;;;22.27;28.31;95426.25;5071045;28;20108;-75
2021/04/11 12:14:22;;;;;;;2.60;1.20;;;;;;;21.43;29.59;95421.22;5071595;28;20052;-76
2021/04/11 12:16:57;;;;;;;4.25;1.60;;;;;;;21.07;30.40;95420.69;5069782;28;20040;-78
2021/04/11 12:19:29;;;;;;;6.07;2.10;;;;;;;21.25;30.14;95414.25;5075121;28;20040;-76
2021/04/11 12:22:09;;;;;;;3.30;1.67;;;;;;;21.08;31.14;95416.13;5071621;28;20060;-76
2021/04/11 12:24:47;;;;;;;5.35;1.67;;;;;;;21.47;29.33;95414.31;5072206;28;20400;-76
2021/04/11 12:27:15;;;;;;;2.85;1.48;;;;;;;21.09;29.45;95413.25;5081529;28;20044;-76
2021/04/11 12:29:48;;;;;;;3.85;1.50;;;;;;;21.42;29.18;95404.34;5068631;28;20057;-77
2021/04/11 12:32:35;;;;;;;3.92;1.65;;;;;;;22.21;28.52;95407.72;5089010;28;20042;-77
2021/04/11 12:35:28;;;;;;;4.22;1.45;;;;;;;21.30;28.86;95405.50;5078757;28;20099;-77